createdAt,value
2022-08-25T00:03:23.434Z,11.7
2022-08-25T00:17:47.459Z,12.3
2022-08-25T00:32:14.797Z,12
2022-08-25T00:46:47.972Z,12.1
2022-08-25T01:01:17.977Z,12.2
2022-08-25T01:15:40.272Z,12.3
2022-08-25T01:30:07.584Z,12.4
2022-08-25T01:44:35.574Z,12.7
2022-08-25T01:59:02.664Z,12.9
2022-08-25T02:13:32.892Z,12.9
2022-08-25T02:27:58.154Z,13.2
2022-08-25T02:42:25.881Z,13.2
2022-08-25T02:56:53.742Z,13.4
2022-08-25T03:11:21.242Z,13.5
2022-08-25T03:25:49.627Z,13.6
2022-08-25T03:40:17.154Z,13.7
2022-08-25T03:54:44.758Z,13.8
2022-08-25T04:09:11.496Z,13.9
2022-08-25T04:23:38.130Z,13.9
2022-08-25T04:38:12.940Z,14.2
2022-08-25T04:52:41.332Z,14.3
2022-08-25T05:07:05.116Z,14.4
2022-08-25T05:21:31.177Z,14.5
2022-08-25T05:35:58.662Z,14.7
2022-08-25T05:50:26.061Z,14.9
2022-08-25T06:04:53.994Z,15.1
2022-08-25T06:19:22.375Z,15.4
2022-08-25T06:33:56.556Z,15.4
2022-08-25T06:48:27.161Z,15.7
2022-08-25T07:02:58.262Z,15.8
2022-08-25T07:17:29.440Z,16
2022-08-25T07:31:56.128Z,16.1
2022-08-25T07:46:34.999Z,16.7
2022-08-25T08:01:14.209Z,16.6
2022-08-25T08:15:44.161Z,16.2
2022-08-25T08:30:12.888Z,15.9
2022-08-25T08:44:42.486Z,15.9
2022-08-25T08:59:11.076Z,16.4
2022-08-25T09:13:38.669Z,16
2022-08-25T09:28:08.768Z,16.8
2022-08-25T09:42:28.480Z,15.6
2022-08-25T09:56:52.848Z,14.9
2022-08-25T10:11:19.825Z,14.6
2022-08-25T10:26:05.635Z,14.6
2022-08-25T10:40:29.379Z,13.3
2022-08-25T10:54:55.169Z,13.3
2022-08-25T11:09:21.275Z,12.1
2022-08-25T11:23:48.945Z,12.8
2022-08-25T11:38:17.554Z,12.9
2022-08-25T11:52:45.302Z,12.9
2022-08-25T12:07:14.513Z,13.1
2022-08-25T12:21:43.259Z,12.2
2022-08-25T12:36:12.841Z,12.7
2022-08-25T12:50:43.681Z,13.3
2022-08-25T13:05:05.720Z,13.1
2022-08-25T13:19:35.773Z,12.8
2022-08-25T13:34:00.663Z,13.6
2022-08-25T13:48:29.741Z,14
2022-08-25T14:02:56.951Z,13.2
2022-08-25T14:17:42.146Z,13.5
2022-08-25T14:31:55.482Z,13.7
2022-08-25T14:46:23.719Z,13.5
2022-08-25T15:00:51.231Z,14
2022-08-25T15:15:18.846Z,14.2
2022-08-25T15:29:45.166Z,14.1
2022-08-25T15:44:10.375Z,13.9
2022-08-25T15:58:50.348Z,13.6
2022-08-25T16:13:15.720Z,13.7
2022-08-25T16:27:45.838Z,13.7
2022-08-25T16:42:08.532Z,13.6
2022-08-25T16:56:40.847Z,13.6
2022-08-25T17:11:13.110Z,13.5
2022-08-25T17:25:33.461Z,14.2
2022-08-25T17:40:04.107Z,13.8
2022-08-25T17:54:28.792Z,13.9
2022-08-25T18:09:01.455Z,14.6
2022-08-25T18:23:23.092Z,14.6
2022-08-25T18:37:49.106Z,14.3
2022-08-25T18:52:14.178Z,14.5
2022-08-25T19:06:44.230Z,14.7
2022-08-25T19:21:07.401Z,14.6
2022-08-25T19:35:34.322Z,14.3
2022-08-25T19:50:07.653Z,14.7
2022-08-25T20:04:35.391Z,14.8
2022-08-25T20:18:57.954Z,14.7
2022-08-25T20:33:25.651Z,15
2022-08-25T20:47:49.797Z,14.9
2022-08-25T21:02:17.431Z,14.7
2022-08-25T21:16:44.918Z,14.8
2022-08-25T21:31:17.084Z,14.8
2022-08-25T21:45:47.639Z,15
2022-08-25T22:00:11.326Z,15
2022-08-25T22:14:34.916Z,15.2
2022-08-25T22:29:00.220Z,15.2
2022-08-25T22:43:29.147Z,15.2
2022-08-25T22:57:55.164Z,15.1
2022-08-25T23:12:22.473Z,15.2
2022-08-25T23:26:51.622Z,14.9
2022-08-25T23:41:15.388Z,15
2022-08-25T23:55:55.425Z,15
